createdAt,value
2022-10-06T00:04:14.261Z,38.42
2022-10-06T00:09:21.457Z,38.60
2022-10-06T00:14:28.680Z,38.39
2022-10-06T00:19:35.856Z,38.48
2022-10-06T00:24:43.031Z,38.63
2022-10-06T00:29:50.181Z,38.18
2022-10-06T00:34:57.442Z,38.78
2022-10-06T00:40:04.688Z,38.75
2022-10-06T00:45:11.834Z,38.50
2022-10-06T00:50:19.050Z,38.80
2022-10-06T00:55:26.285Z,39.07
2022-10-06T01:00:33.409Z,38.63
2022-10-06T01:05:40.661Z,38.98
2022-10-06T01:10:47.890Z,38.90
2022-10-06T01:15:55.126Z,38.84
2022-10-06T01:21:02.289Z,39.24
2022-10-06T01:26:09.536Z,39.36
2022-10-06T01:31:16.784Z,39.65
2022-10-06T01:36:23.971Z,39.54
2022-10-06T01:41:31.241Z,39.55
2022-10-06T01:46:38.524Z,39.57
2022-10-06T01:51:45.667Z,39.61
2022-10-06T01:56:52.984Z,39.54
2022-10-06T02:02:00.210Z,39.57
2022-10-06T02:07:07.380Z,39.44
2022-10-06T02:12:14.676Z,39.25
2022-10-06T02:17:21.848Z,38.94
2022-10-06T02:22:29.883Z,39.20
2022-10-06T02:27:37.137Z,39.04
2022-10-06T02:32:44.337Z,38.90
2022-10-06T02:37:51.493Z,39.09
2022-10-06T02:42:58.707Z,39.13
2022-10-06T02:48:07.215Z,39.12
2022-10-06T02:53:14.424Z,39.08
2022-10-06T02:58:21.646Z,39.11
2022-10-06T03:03:28.828Z,38.96
2022-10-06T03:08:36.046Z,39.07
2022-10-06T03:13:43.225Z,38.98
2022-10-06T03:18:50.408Z,39.10
2022-10-06T03:23:57.566Z,39.22
2022-10-06T03:29:09.194Z,39.12
2022-10-06T03:34:12.045Z,39.15
2022-10-06T03:39:19.250Z,39.08
2022-10-06T03:44:26.488Z,39.14
2022-10-06T03:49:33.676Z,39.08
2022-10-06T03:54:40.877Z,39.07
2022-10-06T03:59:49.604Z,39.04
2022-10-06T04:04:56.825Z,39.13
2022-10-06T04:10:04.028Z,39.14
2022-10-06T04:15:11.311Z,39.07
2022-10-06T04:20:18.493Z,39.04
2022-10-06T04:25:25.859Z,39.04
2022-10-06T04:30:33.043Z,39.07
2022-10-06T04:35:40.209Z,39.06
2022-10-06T04:40:47.457Z,38.99
2022-10-06T04:45:54.804Z,39.01
2022-10-06T04:51:01.873Z,38.96
2022-10-06T04:56:09.070Z,38.90
2022-10-06T05:01:16.419Z,38.86
2022-10-06T05:06:23.485Z,38.83
2022-10-06T05:11:30.684Z,38.89
2022-10-06T05:16:38.176Z,38.98
2022-10-06T05:21:45.133Z,38.86
2022-10-06T05:26:52.321Z,38.85
2022-10-06T05:31:59.665Z,38.81
2022-10-06T05:37:06.707Z,38.80
2022-10-06T05:42:13.972Z,38.83
2022-10-06T05:47:21.181Z,39.03
2022-10-06T05:52:28.334Z,38.89
2022-10-06T05:57:35.562Z,38.79
2022-10-06T06:02:42.877Z,38.75
2022-10-06T06:07:49.892Z,38.76
2022-10-06T06:12:57.139Z,38.75
2022-10-06T06:18:04.431Z,38.72
2022-10-06T06:23:11.657Z,38.75
2022-10-06T06:28:18.919Z,38.73
2022-10-06T06:33:26.120Z,38.66
2022-10-06T06:38:33.651Z,38.69
2022-10-06T06:43:40.912Z,38.69
2022-10-06T06:48:48.122Z,38.75
2022-10-06T06:53:55.313Z,38.70
2022-10-06T06:59:04.490Z,38.72
2022-10-06T07:04:11.671Z,38.71
2022-10-06T07:09:18.873Z,38.71
2022-10-06T07:14:26.086Z,38.69
2022-10-06T07:19:33.305Z,38.73
2022-10-06T07:24:40.572Z,38.74
2022-10-06T07:29:57.608Z,38.77
2022-10-06T07:35:02.818Z,38.79
2022-10-06T07:40:09.870Z,40.21
2022-10-06T07:45:17.057Z,40.34
2022-10-06T07:50:24.264Z,39.90
2022-10-06T07:55:32.305Z,39.82
2022-10-06T08:00:39.462Z,39.69
2022-10-06T08:05:46.754Z,39.58
2022-10-06T08:10:53.978Z,39.49
2022-10-06T08:16:01.281Z,39.43
2022-10-06T08:21:08.473Z,39.41
2022-10-06T08:26:15.646Z,39.38
2022-10-06T08:31:22.886Z,39.20
2022-10-06T08:36:32.417Z,39.30
2022-10-06T08:41:37.216Z,39.28
2022-10-06T08:46:44.392Z,39.44
2022-10-06T08:51:51.633Z,39.38
2022-10-06T08:56:58.747Z,39.54
2022-10-06T09:02:06.029Z,39.41
2022-10-06T09:07:13.199Z,39.32
2022-10-06T09:12:20.369Z,39.28
2022-10-06T09:17:27.566Z,39.34
2022-10-06T09:22:34.763Z,39.50
2022-10-06T09:27:41.954Z,39.39
2022-10-06T09:32:49.153Z,39.54
2022-10-06T09:37:56.376Z,39.44
2022-10-06T09:43:03.605Z,39.49
2022-10-06T09:48:10.849Z,39.58
2022-10-06T09:53:18.140Z,39.98
2022-10-06T09:58:25.508Z,40.15
2022-10-06T10:03:32.723Z,39.99
2022-10-06T10:08:39.986Z,39.82
2022-10-06T10:13:47.190Z,40.06
2022-10-06T10:18:54.422Z,40.04
2022-10-06T10:24:01.701Z,40.17
2022-10-06T10:29:08.857Z,40.65
2022-10-06T10:34:25.885Z,40.14
2022-10-06T10:39:23.281Z,39.98
2022-10-06T10:44:30.532Z,39.87
2022-10-06T10:49:37.773Z,39.84
2022-10-06T10:54:45.052Z,39.83
2022-10-06T10:59:52.239Z,39.76
2022-10-06T11:04:59.872Z,39.84
2022-10-06T11:10:06.750Z,40.00
2022-10-06T11:15:13.973Z,40.19
2022-10-06T11:20:21.204Z,40.11
2022-10-06T11:25:30.119Z,40.42
2022-10-06T11:30:35.614Z,40.76
2022-10-06T11:35:42.803Z,41.11
2022-10-06T11:40:50.022Z,41.01
2022-10-06T11:45:57.189Z,40.95
2022-10-06T11:51:04.373Z,40.94
2022-10-06T11:56:11.626Z,41.20
2022-10-06T12:01:18.734Z,41.08
2022-10-06T12:06:25.938Z,41.09
2022-10-06T12:11:33.135Z,41.23
2022-10-06T12:17:11.526Z,41.35
2022-10-06T12:21:47.963Z,41.24
2022-10-06T12:26:55.293Z,41.52
2022-10-06T12:32:02.471Z,41.55
2022-10-06T12:37:09.663Z,41.53
2022-10-06T12:42:16.949Z,41.43
2022-10-06T12:47:24.173Z,41.75
2022-10-06T12:52:31.435Z,41.68
2022-10-06T12:57:38.643Z,41.70
2022-10-06T13:02:45.842Z,41.92
2022-10-06T13:07:52.947Z,41.71
2022-10-06T13:13:00.351Z,41.98
2022-10-06T13:18:07.749Z,41.89
2022-10-06T13:23:14.990Z,42.18
2022-10-06T13:28:22.660Z,42.00
2022-10-06T13:33:29.654Z,41.95
2022-10-06T13:38:36.886Z,42.03
2022-10-06T13:43:44.153Z,42.35
2022-10-06T13:48:51.376Z,41.98
2022-10-06T13:53:58.589Z,42.05
2022-10-06T13:59:05.824Z,42.05
2022-10-06T14:04:13.036Z,42.01
2022-10-06T14:09:20.301Z,42.24
2022-10-06T14:14:27.642Z,42.18
2022-10-06T14:19:34.856Z,42.22
2022-10-06T14:24:42.067Z,42.42
2022-10-06T14:29:52.812Z,42.29
2022-10-06T14:35:00.125Z,42.35
2022-10-06T14:40:11.816Z,42.41
2022-10-06T14:45:14.689Z,42.35
2022-10-06T14:50:21.830Z,42.28
2022-10-06T14:55:29.030Z,42.57
2022-10-06T15:00:36.280Z,42.43
2022-10-06T15:05:43.442Z,42.31
2022-10-06T15:10:50.652Z,42.75
2022-10-06T15:15:57.945Z,42.84
2022-10-06T15:21:05.583Z,42.66
2022-10-06T15:26:13.335Z,42.81
2022-10-06T15:31:20.632Z,42.68
2022-10-06T15:36:27.789Z,42.72
2022-10-06T15:41:35.013Z,42.77
2022-10-06T15:46:42.318Z,42.87
2022-10-06T15:51:49.402Z,42.76
2022-10-06T15:56:56.676Z,43.64
2022-10-06T16:02:04.150Z,43.47
2022-10-06T16:07:11.502Z,43.29
2022-10-06T16:12:18.739Z,43.53
2022-10-06T16:17:26.002Z,43.22
2022-10-06T16:22:33.220Z,43.35
2022-10-06T16:27:40.393Z,43.28
2022-10-06T16:32:47.679Z,43.30
2022-10-06T16:37:54.885Z,43.17
2022-10-06T16:43:02.059Z,43.15
2022-10-06T16:48:09.305Z,43.16
2022-10-06T16:53:17.051Z,43.14
2022-10-06T16:58:23.747Z,43.07
2022-10-06T17:03:31.130Z,43.03
2022-10-06T17:08:38.188Z,43.39
2022-10-06T17:13:45.402Z,43.65
2022-10-06T17:18:52.623Z,43.52
2022-10-06T17:24:00.405Z,43.60
2022-10-06T17:29:07.619Z,43.61
2022-10-06T17:34:19.537Z,43.11
2022-10-06T17:39:22.170Z,43.16
2022-10-06T17:44:29.556Z,43.07
2022-10-06T17:49:36.864Z,43.06
2022-10-06T17:54:44.030Z,43.06
2022-10-06T17:59:51.556Z,43.06
2022-10-06T18:04:59.021Z,43.00
2022-10-06T18:10:06.211Z,43.05
2022-10-06T18:15:13.794Z,43.31
2022-10-06T18:20:21.427Z,43.96
2022-10-06T18:25:28.805Z,44.24
2022-10-06T18:30:36.069Z,44.24
2022-10-06T18:40:50.553Z,44.43
2022-10-06T18:45:59.093Z,44.22
2022-10-06T18:51:06.413Z,44.35
2022-10-06T18:56:13.563Z,44.29
2022-10-06T19:01:21.287Z,44.05
2022-10-06T19:06:28.725Z,43.85
2022-10-06T19:11:37.338Z,43.60
2022-10-06T19:16:45.066Z,43.71
2022-10-06T19:21:52.316Z,43.60
2022-10-06T19:26:59.877Z,43.74
2022-10-06T19:32:07.493Z,43.79
2022-10-06T19:37:15.137Z,43.53
2022-10-06T19:42:22.435Z,43.37
2022-10-06T19:47:29.922Z,43.42
2022-10-06T19:52:37.565Z,43.54
2022-10-06T19:57:45.480Z,43.40
2022-10-06T20:02:52.476Z,43.41
2022-10-06T20:07:59.689Z,43.22
2022-10-06T20:13:06.813Z,43.43
2022-10-06T20:18:14.037Z,43.28
2022-10-06T20:23:21.320Z,43.25
2022-10-06T20:28:28.533Z,43.46
2022-10-06T20:33:35.726Z,43.54
2022-10-06T20:38:42.927Z,43.35
2022-10-06T20:43:50.106Z,43.34
2022-10-06T20:48:57.352Z,43.29
2022-10-06T20:54:04.568Z,43.04
2022-10-06T20:59:11.674Z,43.28
2022-10-06T21:04:33.832Z,43.10
2022-10-06T21:09:41.144Z,43.00
2022-10-06T21:14:48.332Z,42.96
2022-10-06T21:19:55.609Z,43.10
2022-10-06T21:25:02.879Z,42.99
2022-10-06T21:30:10.160Z,42.81
2022-10-06T21:35:17.448Z,42.54
2022-10-06T21:40:24.724Z,42.49
2022-10-06T21:45:33.166Z,42.40
2022-10-06T21:50:39.272Z,42.23
2022-10-06T21:55:46.800Z,42.16
2022-10-06T22:00:58.063Z,42.19
2022-10-06T22:06:01.145Z,42.01
2022-10-06T22:11:08.375Z,41.85
2022-10-06T22:16:15.685Z,41.92
2022-10-06T22:21:22.864Z,41.98
2022-10-06T22:26:30.143Z,41.80
2022-10-06T22:31:37.371Z,41.89
2022-10-06T22:36:44.681Z,42.13
2022-10-06T22:41:51.950Z,42.11
2022-10-06T22:46:59.318Z,42.16
2022-10-06T22:52:06.483Z,42.19
2022-10-06T22:57:13.732Z,42.07
2022-10-06T23:02:20.958Z,42.29
2022-10-06T23:07:28.155Z,42.26
2022-10-06T23:12:35.452Z,42.38
2022-10-06T23:17:42.925Z,42.31
2022-10-06T23:22:49.840Z,42.24
2022-10-06T23:27:57.166Z,42.29
2022-10-06T23:33:04.350Z,42.27
2022-10-06T23:38:11.627Z,42.23
2022-10-06T23:43:18.946Z,42.27
2022-10-06T23:48:26.241Z,42.27
2022-10-06T23:53:33.478Z,42.26
2022-10-06T23:58:40.734Z,42.33
